Time;durP1;ratioP1;P1;durP2;ratioP2;P2;SDS_P1;SDS_P2;PMS_P1;PMS_P2;Temp;Humidity;BMP_temperature;BMP_pressure;BME280_temperature;BME280_humidity;BME280_pressure;Samples;Min_cycle;Max_cycle;Signal;HPM_P1;HPM_P2
2022/08/08 00:00:09;;;;;;;9.95;9.15;;;;;;;21.68;69.47;94973.72;5098455;28;20214;-71
2022/08/08 00:02:42;;;;;;;10.35;9.45;;;;;;;21.65;69.37;94975.38;5098452;28;20222;-71
2022/08/08 00:05:15;;;;;;;9.98;9.18;;;;;;;21.60;69.67;94971.03;5098221;28;20184;-71
2022/08/08 00:07:51;;;;;;;10.60;9.80;;;;;;;21.57;69.77;94969.09;5097470;28;20207;-71
2022/08/08 00:10:22;;;;;;;10.60;9.65;;;;;;;21.58;69.84;94965.06;5098274;28;20226;-71
2022/08/08 00:12:58;;;;;;;10.55;9.75;;;;;;;21.53;70.73;94973.16;5098418;28;20204;-71
2022/08/08 00:15:31;;;;;;;10.45;9.55;;;;;;;21.54;70.86;94977.56;5096950;28;20627;-71
2022/08/08 00:18:03;;;;;;;11.38;10.38;;;;;;;21.56;70.85;94972.31;5097732;28;20192;-71
2022/08/08 00:20:39;;;;;;;10.35;9.48;;;;;;;21.52;70.64;94974.38;5097724;28;20557;-71
2022/08/08 00:23:12;;;;;;;11.15;10.20;;;;;;;21.49;70.11;94980.84;5098217;28;20208;-71
2022/08/08 00:25:40;;;;;;;10.30;9.50;;;;;;;21.43;70.02;94977.75;5097078;28;20219;-71
2022/08/08 00:28:14;;;;;;;10.27;9.38;;;;;;;21.35;70.48;94982.69;5097654;28;20199;-71
2022/08/08 00:30:49;;;;;;;9.98;8.98;;;;;;;21.31;70.47;94989.50;5098154;28;20184;-71
2022/08/08 00:33:22;;;;;;;10.60;9.60;;;;;;;21.29;70.57;94984.34;5097197;28;20203;-71
2022/08/08 00:35:53;;;;;;;10.80;9.90;;;;;;;21.28;70.32;94979.13;5096970;28;20224;-71
2022/08/08 00:38:42;;;;;;;9.80;9.00;;;;;;;21.30;70.45;94979.53;5097718;28;20200;-71
2022/08/08 00:41:47;;;;;;;9.88;9.05;;;;;;;21.35;70.50;94979.06;5096810;28;20270;-71
2022/08/08 00:44:47;;;;;;;10.55;9.65;;;;;;;21.32;70.33;94977.88;5019313;28;20213;-71
2022/08/08 00:47:45;;;;;;;10.32;9.38;;;;;;;21.31;70.96;94976.28;5016486;28;20206;-71
2022/08/08 00:50:47;;;;;;;9.55;8.75;;;;;;;21.25;70.53;94975.19;5019460;28;20206;-71
2022/08/08 00:53:20;;;;;;;10.73;9.77;;;;;;;21.20;70.22;94978.47;4960741;28;20220;-71
2022/08/08 00:56:15;;;;;;;10.95;10.07;;;;;;;21.15;70.34;94976.16;5017624;28;20210;-71
2022/08/08 00:59:34;;;;;;;9.52;8.73;;;;;;;21.11;69.96;94976.19;5019334;28;20217;-71
2022/08/08 01:02:50;;;;;;;10.48;9.57;;;;;;;21.07;69.74;94980.28;4976902;28;20243;-71
2022/08/08 01:05:47;;;;;;;10.52;9.73;;;;;;;21.01;70.18;94979.94;5018940;28;20209;-71
2022/08/08 01:09:00;;;;;;;9.55;8.85;;;;;;;20.96;69.72;94977.63;5035292;28;20214;-71
2022/08/08 01:12:01;;;;;;;10.38;9.38;;;;;;;20.97;70.26;94987.63;5027267;28;20210;-71
2022/08/08 01:15:16;;;;;;;9.60;8.80;;;;;;;20.96;70.72;94985.25;5040500;28;20212;-71
2022/08/08 01:18:10;;;;;;;9.77;8.98;;;;;;;20.96;70.73;94986.03;5034967;28;20202;-71
2022/08/08 01:20:53;;;;;;;9.85;8.95;;;;;;;20.95;70.99;94984.44;5034973;28;20194;-71
2022/08/08 01:23:46;;;;;;;10.38;8.98;;;;;;;20.92;70.35;94985.31;5018591;28;20248;-71
2022/08/08 01:26:40;;;;;;;9.82;8.85;;;;;;;20.89;70.09;94986.94;5028252;28;20292;-71
2022/08/08 01:29:26;;;;;;;9.57;8.68;;;;;;;20.88;69.75;94987.38;4993552;28;20634;-71
2022/08/08 01:32:32;;;;;;;10.40;9.50;;;;;;;20.88;70.44;94995.78;5018290;28;20218;-71
2022/08/08 01:38:14;;;;;;;10.10;9.20;;;;;;;20.80;70.54;95009.06;5113801;27;20554;-71
2022/08/08 01:40:49;;;;;;;10.25;9.25;;;;;;;20.79;70.84;95010.28;5112221;28;20195;-71
2022/08/08 01:43:32;;;;;;;10.32;9.52;;;;;;;20.81;70.89;95002.25;5112807;28;20555;-71
2022/08/08 01:46:12;;;;;;;10.23;9.38;;;;;;;20.80;70.92;95003.47;5113011;28;20180;-71
2022/08/08 01:48:52;;;;;;;10.27;9.40;;;;;;;20.82;71.13;95003.06;5095353;28;20196;-71
2022/08/08 01:51:40;;;;;;;10.40;9.50;;;;;;;20.83;71.22;95004.63;5112659;28;20195;-71
2022/08/08 01:54:16;;;;;;;10.45;9.50;;;;;;;20.80;71.30;95011.06;5113063;27;20277;-71
2022/08/08 01:56:55;;;;;;;11.32;9.95;;;;;;;20.77;71.63;95014.72;5112771;28;20204;-71
2022/08/08 01:59:52;;;;;;;10.65;9.75;;;;;;;20.81;72.00;95012.69;5146292;27;20524;-71
2022/08/08 02:02:35;;;;;;;9.93;9.02;;;;;;;20.84;71.28;95009.00;5112415;28;20531;-71
2022/08/08 02:05:15;;;;;;;10.00;9.10;;;;;;;20.85;70.62;95011.41;5112393;28;20194;-71
2022/08/08 02:07:57;;;;;;;9.88;8.90;;;;;;;20.93;70.30;95017.72;5111659;28;20689;-71
2022/08/08 02:10:52;;;;;;;10.38;9.48;;;;;;;20.94;69.62;95008.09;5111970;28;20196;-71
2022/08/08 02:13:29;;;;;;;10.48;9.48;;;;;;;20.94;70.39;95005.28;5146079;27;20204;-71
2022/08/08 02:16:03;;;;;;;9.77;8.98;;;;;;;20.94;69.48;95018.50;5112359;28;20192;-71
2022/08/08 02:18:39;;;;;;;10.18;9.38;;;;;;;20.94;69.96;95019.28;5112630;27;20191;-71
2022/08/08 02:24:07;;;;;;;9.00;8.30;;;;;;;20.82;70.63;95011.47;5112190;28;20195;-71
2022/08/08 02:26:42;;;;;;;10.20;9.07;;;;;;;20.81;71.10;95013.47;5112316;28;20195;-71
2022/08/08 02:29:22;;;;;;;9.30;8.50;;;;;;;20.81;71.48;95015.50;5145813;27;20260;-71
2022/08/08 02:32:26;;;;;;;10.75;9.73;;;;;;;20.79;71.13;95012.31;5145562;27;20264;-71
2022/08/08 02:35:34;;;;;;;9.45;8.63;;;;;;;20.77;71.49;95021.16;5096337;28;20234;-71
2022/08/08 02:38:25;;;;;;;10.48;9.57;;;;;;;20.76;71.62;95016.72;5094190;28;20671;-71
2022/08/08 02:41:21;;;;;;;11.25;10.13;;;;;;;20.71;71.32;95019.22;5145493;27;20606;-71
2022/08/08 02:44:34;;;;;;;10.55;9.55;;;;;;;20.67;71.15;95017.25;5110661;28;20211;-71
2022/08/08 02:47:25;;;;;;;10.68;9.55;;;;;;;20.60;72.16;95020.16;5109976;28;20213;-71
2022/08/08 02:50:31;;;;;;;10.77;9.77;;;;;;;20.60;72.15;95024.97;5097888;28;20191;-71
2022/08/08 02:53:19;;;;;;;10.60;9.63;;;;;;;20.62;71.39;95025.31;5094138;28;20235;-71
2022/08/08 02:56:25;;;;;;;10.75;9.85;;;;;;;20.56;71.09;95035.41;5097248;28;20268;-71
2022/08/08 02:59:29;;;;;;;10.30;9.30;;;;;;;20.55;71.61;95025.41;5098110;28;20181;-71
2022/08/08 03:02:20;;;;;;;10.70;9.60;;;;;;;20.51;71.79;95035.84;5097133;28;20218;-71
2022/08/08 03:05:34;;;;;;;11.43;10.15;;;;;;;20.49;71.85;95033.47;5097134;28;20192;-71
2022/08/08 03:08:38;;;;;;;10.75;9.75;;;;;;;20.47;71.90;95029.47;5084960;28;20216;-71
2022/08/08 03:11:45;;;;;;;10.50;9.60;;;;;;;20.44;72.34;95031.91;5097166;28;20196;-71
2022/08/08 03:14:40;;;;;;;10.48;9.48;;;;;;;20.43;72.16;95032.31;5096896;28;20197;-71
2022/08/08 03:17:13;;;;;;;11.30;10.20;;;;;;;20.41;72.00;95040.38;5096461;28;20662;-71
2022/08/08 03:20:07;;;;;;;11.02;9.90;;;;;;;20.40;71.52;95033.94;5097657;28;20185;-71
2022/08/08 03:22:46;;;;;;;12.52;10.57;;;;;;;20.41;72.08;95040.38;5097977;28;20246;-71
2022/08/08 03:25:15;;;;;;;10.93;9.82;;;;;;;20.33;71.52;95034.00;5097346;28;20238;-71
2022/08/08 03:27:49;;;;;;;10.70;9.82;;;;;;;20.28;71.51;95039.28;5097462;28;20191;-71
2022/08/08 03:30:19;;;;;;;10.90;9.95;;;;;;;20.23;71.26;95039.75;5096752;28;20192;-71
2022/08/08 03:35:39;;;;;;;11.32;10.07;;;;;;;20.21;71.54;95042.97;5096844;28;20257;-71
2022/08/08 03:38:09;;;;;;;10.52;9.52;;;;;;;20.21;71.36;95045.75;5096330;28;20269;-71
2022/08/08 03:40:37;;;;;;;11.95;9.57;;;;;;;20.16;71.70;95046.22;5097179;28;20189;-71
2022/08/08 03:43:07;;;;;;;9.93;8.93;;;;;;;20.15;71.81;95053.84;5096442;28;20208;-71
2022/08/08 03:45:35;;;;;;;10.70;9.70;;;;;;;20.15;71.96;95047.41;5096831;28;20180;-71
2022/08/08 03:48:06;;;;;;;10.07;9.13;;;;;;;20.09;72.53;95049.88;5097140;28;20192;-71
2022/08/08 03:50:36;;;;;;;11.48;9.60;;;;;;;20.10;72.33;95056.28;5097441;28;20252;-71
2022/08/08 03:53:11;;;;;;;10.35;9.40;;;;;;;20.07;71.77;95055.09;5079195;28;20219;-71
2022/08/08 03:55:38;;;;;;;11.02;9.63;;;;;;;20.06;71.74;95058.31;5095997;28;20196;-71
2022/08/08 03:58:05;;;;;;;10.77;9.88;;;;;;;20.10;71.47;95062.66;5095822;28;20224;-71
2022/08/08 04:00:33;;;;;;;10.93;9.98;;;;;;;20.12;71.26;95065.06;5095940;28;20630;-71
2022/08/08 04:03:05;;;;;;;12.25;9.52;;;;;;;20.06;71.23;95056.31;5096819;28;20192;-71
2022/08/08 04:05:35;;;;;;;12.73;10.27;;;;;;;20.05;71.54;95060.31;5095547;28;20192;-71
2022/08/08 04:08:04;;;;;;;13.43;10.13;;;;;;;20.04;71.25;95058.72;5096768;28;20176;-71
2022/08/08 04:10:34;;;;;;;11.73;9.77;;;;;;;20.03;71.67;95059.94;5096527;28;20196;-71
2022/08/08 04:13:02;;;;;;;11.27;10.02;;;;;;;20.04;71.62;95063.53;5095820;28;20265;-71
2022/08/08 04:15:29;;;;;;;10.65;9.57;;;;;;;20.06;71.54;95058.31;5096528;28;20214;-71
2022/08/08 04:17:56;;;;;;;11.60;9.57;;;;;;;20.08;71.56;95062.31;5095352;28;20224;-71
2022/08/08 04:20:24;;;;;;;10.82;9.55;;;;;;;20.10;71.44;95064.69;5095600;28;20200;-71
2022/08/08 04:22:52;;;;;;;13.35;9.63;;;;;;;20.08;71.82;95065.09;5095797;28;20200;-71
2022/08/08 04:25:21;;;;;;;12.35;11.10;;;;;;;20.10;71.87;95070.28;5096181;28;20200;-71
2022/08/08 04:27:50;;;;;;;11.70;10.63;;;;;;;20.16;72.38;95074.22;5095419;28;20189;-71
2022/08/08 04:30:17;;;;;;;11.05;9.93;;;;;;;20.18;72.10;95071.78;5078472;28;20200;-71
2022/08/08 04:32:45;;;;;;;11.23;9.32;;;;;;;20.22;71.28;95080.16;5095713;28;20200;-71
2022/08/08 04:35:12;;;;;;;10.98;9.90;;;;;;;20.26;71.44;95078.09;5095436;28;20200;-71
2022/08/08 04:37:39;;;;;;;11.38;10.27;;;;;;;20.29;71.83;95082.88;5095966;28;20670;-71
2022/08/08 04:40:09;;;;;;;11.32;10.20;;;;;;;20.32;72.13;95080.06;5094919;28;20200;-71
2022/08/08 04:42:38;;;;;;;12.15;10.98;;;;;;;20.35;71.80;95075.63;5095298;28;20296;-71
2022/08/08 04:45:09;;;;;;;12.18;10.98;;;;;;;20.37;71.68;95078.78;5095806;28;20600;-70
2022/08/08 04:47:37;;;;;;;11.50;10.43;;;;;;;20.41;71.49;95090.78;5096049;28;20200;-71
2022/08/08 04:50:06;;;;;;;12.23;11.00;;;;;;;20.46;71.37;95086.72;5095253;28;20196;-71
2022/08/08 04:52:34;;;;;;;11.95;10.85;;;;;;;20.50;70.93;95091.09;5094781;28;20204;-71
2022/08/08 04:55:02;;;;;;;12.48;11.38;;;;;;;20.57;71.38;95087.44;5095943;28;20196;-71
2022/08/08 04:57:33;;;;;;;12.95;11.10;;;;;;;20.63;71.18;95092.16;5094544;28;20216;-76
2022/08/08 05:00:00;;;;;;;18.38;12.57;;;;;;;20.69;70.92;95089.69;5094614;28;20192;-71
2022/08/08 05:02:30;;;;;;;13.85;11.10;;;;;;;20.80;70.77;95092.34;5095130;28;20203;-71
2022/08/08 05:04:57;;;;;;;12.90;11.70;;;;;;;21.05;69.65;95095.66;5094941;28;20203;-71
2022/08/08 05:07:25;;;;;;;15.18;12.23;;;;;;;20.97;69.87;95098.97;5094625;28;20197;-71
2022/08/08 05:09:52;;;;;;;11.88;10.73;;;;;;;20.87;69.52;95089.47;5095634;28;20185;-71
2022/08/08 05:12:20;;;;;;;10.60;9.63;;;;;;;20.81;69.41;95085.56;5095172;28;20180;-68
2022/08/08 05:14:48;;;;;;;10.52;9.40;;;;;;;20.79;69.39;95093.59;5094878;28;20204;-69
2022/08/08 05:17:17;;;;;;;9.93;9.05;;;;;;;20.82;68.88;95096.34;5095747;28;20216;-69
2022/08/08 05:19:45;;;;;;;10.15;9.25;;;;;;;20.85;68.83;95092.72;5095717;28;20615;-69
2022/08/08 05:22:13;;;;;;;11.00;10.13;;;;;;;20.89;69.04;95095.47;5095278;28;20196;-69
2022/08/08 05:24:41;;;;;;;9.70;8.77;;;;;;;20.90;68.32;95100.63;5095386;28;20188;-68
2022/08/08 05:27:10;;;;;;;9.30;8.40;;;;;;;20.93;68.77;95104.63;5094633;28;20207;-68
2022/08/08 05:29:41;;;;;;;8.73;7.88;;;;;;;20.95;68.54;95104.97;5095514;28;20212;-68
2022/08/08 05:32:09;;;;;;;8.88;8.07;;;;;;;21.02;68.01;95101.28;5095613;28;20253;-68
2022/08/08 05:34:42;;;;;;;8.80;8.00;;;;;;;21.05;67.88;95104.06;5095636;28;20184;-67
2022/08/08 05:37:13;;;;;;;9.27;8.43;;;;;;;21.09;67.41;95101.22;5094018;28;20654;-67
2022/08/08 05:39:40;;;;;;;11.25;8.40;;;;;;;21.13;67.45;95102.78;5094416;28;20184;-67
2022/08/08 05:42:08;;;;;;;9.55;8.70;;;;;;;21.14;67.40;95104.34;5095171;28;20196;-69
2022/08/08 05:44:43;;;;;;;9.82;8.95;;;;;;;21.18;67.08;95109.13;5094412;28;20215;-68
2022/08/08 05:47:13;;;;;;;8.77;7.88;;;;;;;21.20;67.39;95104.66;5095362;28;20203;-68
2022/08/08 05:49:42;;;;;;;10.18;9.27;;;;;;;21.23;67.40;95103.81;5077371;28;20209;-68
2022/08/08 05:52:12;;;;;;;9.63;8.82;;;;;;;21.27;67.35;95106.59;5095467;28;20258;-67
2022/08/08 05:54:40;;;;;;;9.07;8.27;;;;;;;21.34;67.14;95107.31;5094166;28;20200;-67
2022/08/08 05:57:16;;;;;;;8.82;8.02;;;;;;;21.40;67.26;95104.84;5095032;28;20223;-68
2022/08/08 05:59:49;;;;;;;8.70;7.90;;;;;;;21.47;66.88;95112.38;5094243;28;20203;-68
2022/08/08 06:05:09;;;;;;;9.20;8.30;;;;;;;21.58;67.03;95105.38;5094174;28;20691;-68
2022/08/08 06:07:43;;;;;;;8.05;7.35;;;;;;;21.63;66.94;95110.50;5095316;28;20189;-68
2022/08/08 06:10:11;;;;;;;8.80;8.00;;;;;;;21.68;66.88;95112.06;5094416;28;20200;-69
2022/08/08 06:12:41;;;;;;;8.15;7.45;;;;;;;21.72;66.65;95112.78;5094369;28;20257;-69
2022/08/08 06:15:11;;;;;;;8.98;8.18;;;;;;;21.77;66.30;95108.69;5095069;28;20197;-71
2022/08/08 06:17:40;;;;;;;9.85;8.98;;;;;;;21.81;66.39;95120.66;5093841;28;20216;-71
2022/08/08 06:20:11;;;;;;;10.10;9.10;;;;;;;21.85;66.60;95115.78;5094515;28;20192;-71
2022/08/08 06:22:45;;;;;;;11.35;10.25;;;;;;;21.86;66.42;95109.75;5095321;28;20180;-71
2022/08/08 06:25:12;;;;;;;8.70;7.90;;;;;;;21.87;66.75;95116.16;5098099;28;20258;-71
2022/08/08 06:27:43;;;;;;;9.73;8.75;;;;;;;21.91;66.62;95114.09;5097817;28;20188;-72
2022/08/08 06:30:12;;;;;;;10.52;9.25;;;;;;;21.97;65.93;95120.00;5097954;28;20662;-72
2022/08/08 06:32:43;;;;;;;8.93;7.40;;;;;;;22.04;65.51;95126.31;5098704;28;20245;-72
2022/08/08 06:35:14;;;;;;;9.70;8.90;;;;;;;22.11;65.18;95125.38;5098598;28;20181;-72
2022/08/08 06:37:47;;;;;;;8.70;8.00;;;;;;;22.15;65.13;95122.56;5098716;28;20243;-72
2022/08/08 06:40:15;;;;;;;12.13;11.02;;;;;;;22.21;64.86;95121.66;5098669;28;20184;-71
2022/08/08 06:42:48;;;;;;;8.68;7.97;;;;;;;22.29;64.42;95122.31;5098326;28;20180;-71
2022/08/08 06:45:16;;;;;;;9.68;8.77;;;;;;;22.32;64.45;95127.88;5098853;28;20196;-72
2022/08/08 06:47:43;;;;;;;8.93;8.13;;;;;;;22.36;64.15;95127.81;5097608;28;20204;-71
2022/08/08 06:50:12;;;;;;;9.30;8.50;;;;;;;22.40;63.76;95124.94;5098335;28;20254;-69
2022/08/08 06:52:41;;;;;;;9.48;8.68;;;;;;;22.43;63.69;95127.69;5098116;28;20184;-72
2022/08/08 06:55:11;;;;;;;8.23;7.40;;;;;;;22.50;63.17;95140.81;5097331;28;20211;-71
2022/08/08 06:57:39;;;;;;;8.48;7.43;;;;;;;22.56;62.99;95128.66;5098058;28;20215;-70
2022/08/08 07:00:08;;;;;;;7.90;7.15;;;;;;;22.67;62.62;95128.47;5097514;28;20196;-70
2022/08/08 07:02:36;;;;;;;8.02;7.22;;;;;;;22.72;62.53;95132.78;5097363;28;20203;-69
2022/08/08 07:05:07;;;;;;;10.50;8.75;;;;;;;22.79;62.43;95132.66;5096976;28;20196;-71
2022/08/08 07:08:01;;;;;;;11.27;9.05;;;;;;;22.82;62.31;95138.22;5098020;28;20181;-70
2022/08/08 07:10:35;;;;;;;8.43;7.72;;;;;;;22.85;62.19;95127.34;5097233;28;20193;-70
2022/08/08 07:13:05;;;;;;;8.98;8.00;;;;;;;22.88;61.71;95132.09;5097102;28;20199;-70
2022/08/08 07:15:37;;;;;;;8.55;7.85;;;;;;;22.94;61.12;95134.00;5097962;28;20188;-70
2022/08/08 07:18:07;;;;;;;8.48;7.68;;;;;;;23.00;61.32;95128.66;5096989;28;20220;-71
2022/08/08 07:20:37;;;;;;;8.85;7.95;;;;;;;23.02;61.33;95131.81;5096895;28;20204;-71
2022/08/08 07:23:11;;;;;;;9.55;8.70;;;;;;;23.04;60.83;95129.38;5097650;28;20181;-72
2022/08/08 07:25:41;;;;;;;8.27;7.57;;;;;;;23.05;60.87;95126.13;5096683;28;20212;-71
2022/08/08 07:28:14;;;;;;;8.23;7.47;;;;;;;23.10;60.62;95126.88;5097095;28;20250;-69
2022/08/08 07:30:42;;;;;;;9.10;7.63;;;;;;;23.16;60.40;95133.56;5097280;28;20176;-71
2022/08/08 07:33:13;;;;;;;9.05;8.10;;;;;;;23.22;60.12;95129.81;5097650;28;20580;-72
2022/08/08 07:35:41;;;;;;;8.38;7.55;;;;;;;23.27;59.36;95126.47;5096698;28;20214;-71
2022/08/08 07:38:12;;;;;;;9.88;8.88;;;;;;;23.31;59.90;95129.22;5096457;28;20204;-71
2022/08/08 07:40:41;;;;;;;8.82;8.02;;;;;;;23.32;59.31;95127.22;5097277;28;20234;-70
2022/08/08 07:43:14;;;;;;;9.25;8.40;;;;;;;23.32;59.11;95128.00;5096575;28;20200;-71
2022/08/08 07:45:43;;;;;;;9.65;8.80;;;;;;;23.34;58.94;95121.94;5096105;28;20208;-70
2022/08/08 07:48:11;;;;;;;12.43;9.02;;;;;;;23.37;58.84;95121.84;5096703;28;20195;-71
2022/08/08 07:50:39;;;;;;;8.98;8.27;;;;;;;23.41;58.20;95116.94;5096561;28;20531;-71
2022/08/08 07:53:12;;;;;;;8.63;7.47;;;;;;;23.47;57.95;95120.06;5096330;28;20196;-71
2022/08/08 07:55:42;;;;;;;9.07;7.80;;;;;;;23.54;58.09;95122.72;5097257;28;20189;-71
2022/08/08 07:58:23;;;;;;;8.93;7.72;;;;;;;23.61;58.06;95116.13;5097189;28;20211;-71
2022/08/08 08:00:55;;;;;;;7.80;7.10;;;;;;;23.74;55.73;95117.03;5097225;28;20181;-72
2022/08/08 08:03:29;;;;;;;7.97;7.28;;;;;;;23.76;55.97;95109.75;5096216;28;20196;-71
2022/08/08 08:06:00;;;;;;;8.23;7.53;;;;;;;23.84;55.71;95106.78;5096990;28;20227;-70
2022/08/08 08:08:35;;;;;;;7.63;6.93;;;;;;;23.93;54.54;95107.75;5096334;28;20268;-70
2022/08/08 08:11:10;;;;;;;7.25;6.57;;;;;;;24.03;54.23;95109.50;5097061;28;20223;-69
2022/08/08 08:13:42;;;;;;;7.25;6.60;;;;;;;24.12;55.21;95105.28;5095852;28;20219;-69
2022/08/08 08:16:11;;;;;;;6.80;6.20;;;;;;;24.20;54.73;95101.06;5096606;28;20513;-71
2022/08/08 08:18:46;;;;;;;7.63;6.68;;;;;;;24.36;53.55;95097.44;5096531;28;20219;-72
2022/08/08 08:21:15;;;;;;;7.22;6.53;;;;;;;24.48;53.37;95100.34;5096871;28;20191;-72
2022/08/08 08:23:42;;;;;;;6.95;6.22;;;;;;;24.59;50.87;95099.28;5096621;28;20257;-71
2022/08/08 08:26:12;;;;;;;6.45;5.85;;;;;;;24.65;51.40;95094.66;5096703;28;20189;-72
2022/08/08 08:28:41;;;;;;;6.80;6.30;;;;;;;24.62;51.42;95089.91;5095361;28;20261;-71
2022/08/08 08:31:09;;;;;;;6.88;6.22;;;;;;;24.82;51.31;95101.06;5095659;28;20269;-71
2022/08/08 08:33:37;;;;;;;7.18;6.57;;;;;;;24.90;51.46;95094.00;5096364;28;20185;-71
2022/08/08 08:36:06;;;;;;;8.55;7.72;;;;;;;24.96;51.80;95090.19;5095957;28;20702;-71
2022/08/08 08:38:34;;;;;;;6.22;5.63;;;;;;;25.12;48.59;95083.69;5095616;28;20215;-71
2022/08/08 08:41:05;;;;;;;6.43;5.80;;;;;;;25.24;48.68;95084.19;5095388;28;20208;-69
2022/08/08 08:43:39;;;;;;;5.70;4.80;;;;;;;25.37;46.48;95085.78;5095363;28;20565;-71
2022/08/08 08:46:09;;;;;;;6.20;5.18;;;;;;;25.59;46.07;95090.78;5095825;28;20219;-71
2022/08/08 08:48:38;;;;;;;5.93;5.40;;;;;;;25.70;46.98;95079.94;5096277;28;20176;-71
2022/08/08 08:51:11;;;;;;;6.13;5.18;;;;;;;25.85;46.06;95080.31;5095442;28;20192;-71
2022/08/08 08:53:46;;;;;;;7.03;5.53;;;;;;;26.01;45.98;95085.84;5095699;28;20199;-71
2022/08/08 08:56:14;;;;;;;6.13;5.53;;;;;;;26.02;46.13;95087.44;5096323;28;20179;-72
2022/08/08 08:58:44;;;;;;;5.40;4.90;;;;;;;26.08;45.64;95079.97;5095846;28;20603;-72
2022/08/08 09:01:17;;;;;;;6.75;4.45;;;;;;;26.19;42.15;95078.84;5095915;28;20184;-67
2022/08/08 09:03:47;;;;;;;5.07;4.53;;;;;;;26.32;41.93;95074.72;5095010;28;20203;-71
2022/08/08 09:06:19;;;;;;;4.57;4.00;;;;;;;26.41;41.58;95066.34;5095622;28;20193;-68
2022/08/08 09:08:53;;;;;;;5.43;4.03;;;;;;;26.48;41.72;95067.38;5095103;28;20196;-69
2022/08/08 09:11:22;;;;;;;6.20;4.38;;;;;;;26.58;42.07;95058.50;5095176;28;20200;-67
2022/08/08 09:13:53;;;;;;;4.72;4.25;;;;;;;26.64;42.55;95067.19;5095657;28;20261;-67
2022/08/08 09:16:20;;;;;;;4.45;4.10;;;;;;;26.84;39.64;95052.75;5094608;28;20200;-67
2022/08/08 09:18:48;;;;;;;3.90;3.60;;;;;;;26.89;40.00;95049.31;5095704;28;20216;-67
2022/08/08 09:21:19;;;;;;;4.45;4.05;;;;;;;26.94;40.99;95051.53;5094850;28;20196;-67
2022/08/08 09:23:48;;;;;;;4.68;4.28;;;;;;;26.93;40.61;95052.03;5094343;28;20216;-67
2022/08/08 09:26:21;;;;;;;6.68;4.22;;;;;;;26.94;39.21;95050.75;5095609;28;20195;-66
2022/08/08 09:28:49;;;;;;;4.97;4.57;;;;;;;26.85;40.36;95038.13;5094704;28;20612;-67
2022/08/08 09:31:42;;;;;;;5.82;4.03;;;;;;;26.93;38.58;95035.03;5095463;28;20195;-66
2022/08/08 09:34:11;;;;;;;4.70;3.60;;;;;;;27.05;38.96;95031.34;5079192;28;20215;-67
2022/08/08 09:36:40;;;;;;;4.68;4.38;;;;;;;27.14;39.77;95034.28;5095204;28;20231;-67
2022/08/08 09:39:10;;;;;;;4.03;3.63;;;;;;;27.24;39.74;95024.59;5095448;28;20294;-67
2022/08/08 09:41:39;;;;;;;4.00;3.58;;;;;;;27.42;38.45;95029.56;5095380;28;20279;-66
2022/08/08 09:44:15;;;;;;;5.00;4.20;;;;;;;27.49;38.95;95017.13;5095062;28;20492;-66
2022/08/08 09:46:47;;;;;;;4.53;4.13;;;;;;;27.54;39.17;95019.38;5095449;28;20195;-66
2022/08/08 09:49:16;;;;;;;5.03;4.15;;;;;;;27.55;38.40;95018.91;5094613;28;20196;-67
2022/08/08 09:51:43;;;;;;;7.10;4.07;;;;;;;27.50;36.82;95013.84;5094470;28;20196;-66
2022/08/08 09:54:11;;;;;;;4.00;3.70;;;;;;;27.62;37.69;95011.38;5094817;28;20200;-67
2022/08/08 09:56:42;;;;;;;5.13;4.03;;;;;;;27.59;37.29;95002.56;5095384;28;20188;-67
2022/08/08 09:59:13;;;;;;;4.72;4.32;;;;;;;27.35;37.79;95010.81;5097862;28;20671;-67
2022/08/08 10:01:45;;;;;;;3.95;3.50;;;;;;;27.33;36.49;95006.84;5098081;28;20212;-70
2022/08/08 10:04:16;;;;;;;4.13;3.83;;;;;;;27.25;37.12;94999.88;5099357;28;20180;-71
2022/08/08 10:06:43;;;;;;;4.28;3.88;;;;;;;27.39;38.18;95005.00;5099351;28;20191;-71
2022/08/08 10:09:10;;;;;;;3.83;3.45;;;;;;;27.59;38.65;94998.94;5098489;28;20193;-71
2022/08/08 10:11:39;;;;;;;4.38;3.90;;;;;;;27.87;37.82;94999.84;5098375;28;20201;-70
2022/08/08 10:14:07;;;;;;;4.55;3.92;;;;;;;28.05;36.92;94991.41;5098327;28;20196;-70
2022/08/08 10:16:39;;;;;;;3.78;3.45;;;;;;;28.01;34.92;94978.63;5098093;28;20193;-70
2022/08/08 10:19:10;;;;;;;4.15;3.85;;;;;;;27.97;35.78;94975.16;5097945;28;20285;-70
2022/08/08 10:21:38;;;;;;;4.03;3.50;;;;;;;27.88;37.91;94975.91;5098046;28;20253;-70
2022/08/08 10:24:08;;;;;;;3.72;3.10;;;;;;;28.00;37.15;94974.22;5098101;28;20199;-70
2022/08/08 10:26:39;;;;;;;3.20;2.97;;;;;;;28.19;35.75;94975.03;5098357;28;20192;-70
2022/08/08 10:29:08;;;;;;;4.00;3.60;;;;;;;28.35;35.84;94974.72;5098596;28;20255;-70
2022/08/08 10:34:26;;;;;;;4.50;3.40;;;;;;;28.48;33.87;94972.56;5098486;28;20176;-70
2022/08/08 10:36:56;;;;;;;5.35;3.15;;;;;;;28.29;33.65;94966.06;5098426;28;20251;-69
2022/08/08 10:39:29;;;;;;;3.67;3.20;;;;;;;27.89;37.32;94969.00;5098295;28;20575;-69
2022/08/08 10:41:58;;;;;;;3.47;3.17;;;;;;;27.53;34.18;94970.44;5097788;28;20700;-69
2022/08/08 10:44:28;;;;;;;3.45;3.15;;;;;;;27.46;34.97;94976.41;5097440;28;20201;-69
2022/08/08 10:46:55;;;;;;;5.22;3.30;;;;;;;27.36;34.82;94966.28;5097787;28;20200;-69
2022/08/08 10:49:26;;;;;;;6.88;3.65;;;;;;;27.27;35.29;94966.22;5098593;28;20250;-69
2022/08/08 10:51:54;;;;;;;4.05;3.03;;;;;;;27.21;35.17;94965.28;5098534;28;20285;-70
2022/08/08 10:54:23;;;;;;;3.30;3.00;;;;;;;27.16;34.82;94968.69;5097793;28;20208;-69
2022/08/08 10:56:56;;;;;;;4.75;2.90;;;;;;;27.36;36.13;94969.91;5097316;28;20670;-68
2022/08/08 10:59:25;;;;;;;3.80;3.30;;;;;;;27.62;36.37;94952.69;5098183;28;20205;-68
2022/08/08 11:01:53;;;;;;;3.80;3.20;;;;;;;27.92;34.84;94959.53;5096925;28;20203;-69
2022/08/08 11:04:21;;;;;;;3.28;3.03;;;;;;;28.18;34.32;94953.59;5097851;28;20181;-69
2022/08/08 11:06:59;;;;;;;4.57;2.92;;;;;;;28.38;34.57;94956.81;5098475;28;20238;-69
2022/08/08 11:09:26;;;;;;;4.15;3.00;;;;;;;28.50;32.23;94941.66;5096202;28;20281;-69
2022/08/08 11:11:56;;;;;;;3.78;3.47;;;;;;;28.53;34.37;94943.56;5097031;28;20200;-69
2022/08/08 11:14:25;;;;;;;3.22;3.00;;;;;;;28.63;34.23;94941.50;5096984;28;20200;-69
2022/08/08 11:16:52;;;;;;;3.15;2.95;;;;;;;28.80;33.25;94953.31;5097277;28;20589;-69
2022/08/08 11:19:23;;;;;;;3.47;3.17;;;;;;;28.93;33.46;94942.56;5096880;28;20224;-70
2022/08/08 11:21:54;;;;;;;4.03;3.67;;;;;;;28.92;33.56;94935.31;5096889;28;20205;-70
2022/08/08 11:24:22;;;;;;;3.67;3.28;;;;;;;28.76;32.76;94933.63;5097247;28;20261;-69
2022/08/08 11:26:50;;;;;;;3.60;3.30;;;;;;;28.49;33.03;94942.94;5097796;28;20202;-69
2022/08/08 11:29:19;;;;;;;3.60;3.30;;;;;;;28.27;33.63;94937.38;5097887;28;20206;-68
2022/08/08 11:31:48;;;;;;;4.05;3.13;;;;;;;28.28;34.30;94933.28;5097632;28;20200;-69
2022/08/08 11:34:16;;;;;;;3.75;3.30;;;;;;;28.43;34.70;94935.53;5097620;28;20200;-69
2022/08/08 11:36:43;;;;;;;3.55;3.25;;;;;;;28.68;33.58;94928.72;5096338;28;20246;-69
2022/08/08 11:39:14;;;;;;;3.58;3.28;;;;;;;28.79;34.31;94921.28;5097405;28;20201;-70
2022/08/08 11:41:42;;;;;;;4.85;3.22;;;;;;;28.84;33.55;94931.22;5096384;28;20204;-70
2022/08/08 11:44:12;;;;;;;3.58;3.28;;;;;;;28.57;33.84;94923.53;5097782;28;20196;-70
2022/08/08 11:46:42;;;;;;;3.80;3.47;;;;;;;28.54;34.04;94918.81;5096594;28;20196;-69
2022/08/08 11:49:12;;;;;;;4.00;3.47;;;;;;;28.47;34.40;94930.47;5096444;28;20532;-69
2022/08/08 11:51:43;;;;;;;3.90;3.60;;;;;;;28.46;33.63;94923.22;5097201;28;20181;-70
2022/08/08 11:54:15;;;;;;;4.40;3.33;;;;;;;28.47;34.06;94924.81;5096530;28;20196;-69
2022/08/08 11:56:42;;;;;;;5.95;3.40;;;;;;;28.42;34.47;94917.72;5096066;28;20204;-69
2022/08/08 11:59:11;;;;;;;5.28;3.72;;;;;;;28.51;34.40;94920.56;5096279;28;20223;-69
2022/08/08 12:01:38;;;;;;;6.13;4.40;;;;;;;28.61;34.34;94918.47;5096913;28;20265;-69
2022/08/08 12:04:08;;;;;;;4.00;3.70;;;;;;;28.70;33.37;94920.53;5096223;28;20207;-69
2022/08/08 12:06:35;;;;;;;4.53;4.00;;;;;;;28.63;34.12;94913.13;5096975;28;20200;-69
2022/08/08 12:09:06;;;;;;;3.85;3.55;;;;;;;28.41;34.55;94921.81;5096863;28;20193;-69
2022/08/08 12:11:42;;;;;;;3.88;3.58;;;;;;;28.30;34.73;94913.75;5096929;28;20185;-69
2022/08/08 12:14:10;;;;;;;5.38;4.15;;;;;;;28.47;34.88;94916.28;5097177;28;20196;-70
2022/08/08 12:16:47;;;;;;;5.25;4.80;;;;;;;28.61;34.69;94924.16;5096516;28;20613;-70